Kibworth Harcourt, United Kingdom
Current Conditions -  °F | °C
As of 5:50 AM on Thursday 29 Jan 2015 (Local Time) from EGXT Reporting Station
Clear Clear  
Wind Chill: 24°   Ceiling: Unl
Heat Index: 36°   Visibility: 6mi
Dew Point: 30°   Wind: 23mph
Humidity: 81%   Direction: 240°WSW
Pressure: 29.15"   Gusts: NA
Location:  52.54°N, 0.99°W
Report Text: EGXT 290550Z AUTO 24020KT 9999 NCD 02/M01 Q0987
Loading
Personal Weather Stations






























Interactive Weather Map New forecast layout! Learn more

10-Day Weather Forecast

Advertisements
Track Severe Weather on mobile